Ixtapa Zihuatanejo International Airport
MMZH : rendu visible

Aérodrome :











RETROUVEZ-NOUS SUR...

 
LOGIN :

S'inscrire | Disclaimer

   EN    FR    IT 

 









Légende :    VFR   VFR Marginal   IFR   IFR Intensif   IFR Très Intensif
Visi : 
Plafond : 
>= 8 km
>= 3000ft
5 à 8 km
1000 à 3000 ft
1500m à 5 km
500 à 1000 ft
800 à 1500m
200 à 500 ft
< 800m
< 200 ft
Symboles :   Orages  Brouillard  Fortes neiges  Fortes précipitations  Vent > 20 kt






- Altitude de l'aérodrome : 26 ft
- Code IATA : ZIH


MMZH - Ixtapa Zihuatanejo International

DERNIER METAR :
  • 251742Z 24006KT 6SM FEW250 30/20 A2987 RMK SLP106 54000 964 8/002 HZY

METARs EXPIRÉS :
  • 251641Z 28005KT 6SM SKC 29/21 A2988 RMK HZY CI
  • 251540Z 22005KT 6SM SKC 28/21 A2988 RMK HZY CI

TAF TAF MMZH
Valide du 25 à 18h jusqu'au 26 à 18h UTC


251620Z 2518/2618 24012KT 6SM HZ SKC
FM260600 00000KT P6SM SKC
FM261200 00000KT 5SM HZ SKC
FIR MMFR / Amérique du Nord



MET'MAP, la Météo Aéronautique d'un coup d'oeil ! - Copyright ORBIFLY Décembre 2007 - Disclaimer

ORBIFLY MET'MAP TEAM :

Programmation & Développement : Alexandra Zaïnal
Sur une idée originale de : Baudouin d'Aumeries
Assistance à la programmation : Marc-Olivier Méhu
Soutien technique & logistique : Manuel Goepfert

Contact : metmap@orbifly.com




SOURCES & CREDITS :

   NOAA       Earth
Advisory